Time;durP1;ratioP1;P1;durP2;ratioP2;P2;SDS_P1;SDS_P2;PMS_P1;PMS_P2;Temp;Humidity;BMP_temperature;BMP_pressure;BME280_temperature;BME280_humidity;BME280_pressure;Samples;Min_cycle;Max_cycle;Signal;HPM_P1;HPM_P2
2022/06/21 00:02:18;;;;;;;5.13;2.17;;;23.80;68.00;;;;;;4953096;28;20746;-77
2022/06/21 00:04:47;;;;;;;4.95;1.90;;;23.80;68.30;;;;;;4945885;28;20199;-77
2022/06/21 00:07:21;;;;;;;7.05;2.13;;;23.80;68.30;;;;;;4948056;28;20198;-77
2022/06/21 00:09:50;;;;;;;9.80;2.10;;;23.70;68.20;;;;;;4965113;28;20200;-76
2022/06/21 00:12:18;;;;;;;3.17;1.80;;;23.70;68.30;;;;;;4950745;28;20844;-76
2022/06/21 00:14:46;;;;;;;6.00;2.20;;;23.70;68.40;;;;;;4954581;28;20229;-76
2022/06/21 00:17:20;;;;;;;3.85;1.98;;;23.70;68.60;;;;;;4953683;28;20229;-77
2022/06/21 00:19:50;;;;;;;3.20;2.10;;;23.70;68.80;;;;;;4958803;28;20216;-78
2022/06/21 00:22:20;;;;;;;3.63;1.92;;;23.60;69.40;;;;;;4957573;28;20828;-76
2022/06/21 00:24:51;;;;;;;3.25;2.10;;;23.70;69.70;;;;;;4949175;28;20199;-76
2022/06/21 00:27:22;;;;;;;3.75;2.08;;;23.60;70.00;;;;;;4950408;28;20205;-76
2022/06/21 00:29:50;;;;;;;4.90;2.20;;;23.60;71.20;;;;;;4944405;28;20230;-76
2022/06/21 00:32:21;;;;;;;3.90;2.10;;;23.50;70.30;;;;;;4953069;28;20433;-76
2022/06/21 00:34:50;;;;;;;3.95;2.25;;;23.50;70.60;;;;;;4947820;28;20197;-76
2022/06/21 00:37:23;;;;;;;3.58;2.00;;;23.50;70.80;;;;;;4956227;28;20224;-77
2022/06/21 00:39:52;;;;;;;3.70;2.17;;;23.50;71.50;;;;;;4945811;28;20205;-76
2022/06/21 00:42:24;;;;;;;2.72;2.10;;;23.40;71.50;;;;;;4961377;28;20186;-76
2022/06/21 00:45:03;;;;;;;3.80;2.00;;;23.40;71.80;;;;;;4954744;28;20202;-76
2022/06/21 00:47:37;;;;;;;3.53;2.20;;;23.30;71.50;;;;;;4963467;28;21009;-76
2022/06/21 00:50:16;;;;;;;4.15;2.28;;;23.40;71.30;;;;;;4959675;28;20604;-77
2022/06/21 00:52:51;;;;;;;3.97;2.20;;;23.30;71.10;;;;;;4949119;28;20213;-76
2022/06/21 00:55:30;;;;;;;3.00;2.33;;;23.40;70.90;;;;;;4954428;28;20873;-76
2022/06/21 00:57:59;;;;;;;3.88;2.35;;;23.30;70.60;;;;;;4953173;28;20220;-76
2022/06/21 01:00:32;;;;;;;4.03;2.42;;;23.30;70.70;;;;;;4945815;28;20801;-76
2022/06/21 01:03:07;;;;;;;4.40;2.35;;;23.40;71.10;;;;;;4956822;28;20194;-76
2022/06/21 01:05:42;;;;;;;5.32;2.40;;;23.30;71.00;;;;;;4958383;28;20256;-76
2022/06/21 01:08:14;;;;;;;4.40;3.00;;;23.40;71.30;;;;;;4949402;28;20194;-76
2022/06/21 01:10:45;;;;;;;3.75;2.40;;;23.40;71.90;;;;;;4951346;28;20191;-76
2022/06/21 01:13:17;;;;;;;4.22;2.20;;;23.30;72.00;;;;;;4950255;28;20199;-76
2022/06/21 01:15:49;;;;;;;3.60;2.25;;;23.30;72.70;;;;;;4959930;28;20191;-76
2022/06/21 01:18:22;;;;;;;3.78;2.47;;;23.30;73.10;;;;;;4947624;28;20213;-75
2022/06/21 01:20:55;;;;;;;4.72;2.65;;;23.20;73.90;;;;;;4950751;28;20189;-76
2022/06/21 01:23:39;;;;;;;6.78;2.67;;;23.20;73.50;;;;;;4943913;28;20194;-77
2022/06/21 01:26:29;;;;;;;5.18;2.75;;;23.20;73.80;;;;;;4954869;28;20197;-76
2022/06/21 01:28:59;;;;;;;4.03;2.65;;;23.20;73.80;;;;;;4957881;28;20197;-77
2022/06/21 01:31:29;;;;;;;5.43;2.67;;;23.20;74.10;;;;;;4957556;28;20194;-76
2022/06/21 01:33:57;;;;;;;4.95;2.92;;;23.20;74.40;;;;;;4957354;28;20220;-76
2022/06/21 01:36:28;;;;;;;6.22;2.40;;;23.10;74.80;;;;;;4958612;28;20198;-76
2022/06/21 01:39:04;;;;;;;5.15;2.50;;;23.10;75.00;;;;;;4949520;28;20691;-76
2022/06/21 01:41:37;;;;;;;4.05;2.33;;;23.00;75.00;;;;;;4952521;28;20600;-77
2022/06/21 01:44:11;;;;;;;4.40;2.90;;;23.00;74.80;;;;;;4951787;28;20204;-77
2022/06/21 01:46:39;;;;;;;4.68;2.80;;;23.00;74.50;;;;;;4940602;28;20201;-76
2022/06/21 01:49:10;;;;;;;7.35;3.72;;;23.00;74.60;;;;;;4941009;28;20198;-77
2022/06/21 01:51:44;;;;;;;6.07;2.85;;;23.00;74.90;;;;;;4956818;28;20257;-76
2022/06/21 01:54:15;;;;;;;3.88;2.88;;;23.00;75.40;;;;;;4951168;28;20204;-76
2022/06/21 01:56:49;;;;;;;6.45;3.03;;;23.00;75.60;;;;;;4952647;28;20412;-76
2022/06/21 01:59:21;;;;;;;6.38;2.53;;;23.00;76.00;;;;;;4948717;28;20196;-76
2022/06/21 02:01:55;;;;;;;4.50;2.67;;;22.90;75.90;;;;;;4954401;28;20198;-76
2022/06/21 02:04:26;;;;;;;3.75;2.70;;;22.90;75.70;;;;;;4948137;28;20189;-76
2022/06/21 02:06:57;;;;;;;6.95;2.55;;;22.80;75.60;;;;;;4953570;28;20228;-76
2022/06/21 02:09:27;;;;;;;4.28;2.47;;;22.90;76.00;;;;;;4954602;28;20189;-76
2022/06/21 02:12:03;;;;;;;5.15;2.35;;;22.90;76.20;;;;;;4950084;28;20198;-76
2022/06/21 02:14:36;;;;;;;5.10;2.92;;;22.80;76.30;;;;;;4953485;28;20200;-74
2022/06/21 02:17:16;;;;;;;5.82;3.33;;;22.80;76.40;;;;;;4958903;28;20758;-77
2022/06/21 02:19:47;;;;;;;5.57;2.92;;;22.80;76.70;;;;;;4953651;28;20198;-75
2022/06/21 02:22:18;;;;;;;4.35;2.92;;;22.70;77.00;;;;;;4951189;28;20202;-75
2022/06/21 02:24:46;;;;;;;4.30;3.10;;;22.70;77.60;;;;;;4944771;28;20197;-76
2022/06/21 02:27:18;;;;;;;6.47;3.17;;;22.60;77.70;;;;;;4949422;28;20581;-76
2022/06/21 02:29:52;;;;;;;5.35;2.75;;;22.60;77.90;;;;;;4945146;28;20193;-77
2022/06/21 02:32:26;;;;;;;8.38;3.75;;;22.60;78.00;;;;;;4971895;28;20223;-76
2022/06/21 02:35:02;;;;;;;4.32;2.97;;;22.60;78.20;;;;;;4983563;28;20553;-76
2022/06/21 02:37:32;;;;;;;7.35;3.45;;;22.50;78.40;;;;;;4994326;28;20213;-75
2022/06/21 02:40:03;;;;;;;5.50;3.03;;;22.50;78.80;;;;;;4993559;28;20196;-75
2022/06/21 02:42:37;;;;;;;6.13;3.22;;;22.50;78.60;;;;;;4997738;28;20184;-76
2022/06/21 02:45:18;;;;;;;4.78;3.15;;;22.40;78.80;;;;;;4982660;28;20238;-75
2022/06/21 02:47:49;;;;;;;7.32;3.05;;;22.40;79.00;;;;;;4995822;28;20192;-75
2022/06/21 02:50:32;;;;;;;5.03;3.50;;;22.40;79.20;;;;;;4993918;28;20196;-75
2022/06/21 02:53:02;;;;;;;5.90;3.60;;;22.40;79.20;;;;;;4997302;28;20594;-75
2022/06/21 02:55:40;;;;;;;5.20;3.55;;;22.30;79.10;;;;;;4985868;28;20196;-75
2022/06/21 02:58:16;;;;;;;5.65;3.15;;;22.30;79.40;;;;;;4984663;28;20218;-76
2022/06/21 03:00:46;;;;;;;5.93;3.42;;;22.30;79.40;;;;;;4990839;28;20193;-76
2022/06/21 03:03:19;;;;;;;4.60;3.30;;;22.30;79.40;;;;;;4983144;28;20204;-76
2022/06/21 03:05:51;;;;;;;6.45;3.30;;;22.20;79.50;;;;;;4988644;28;20255;-75
2022/06/21 03:08:20;;;;;;;10.85;3.78;;;22.20;79.70;;;;;;4991761;28;20222;-76
2022/06/21 03:10:51;;;;;;;5.03;3.75;;;22.20;79.70;;;;;;4993079;28;20193;-76
2022/06/21 03:13:24;;;;;;;7.43;3.60;;;22.20;79.60;;;;;;4989471;28;20192;-76
2022/06/21 03:15:58;;;;;;;6.97;3.50;;;22.20;79.50;;;;;;4997605;28;20283;-77
2022/06/21 03:18:31;;;;;;;6.47;3.97;;;22.20;79.40;;;;;;4995908;28;20246;-76
2022/06/21 03:21:03;;;;;;;7.82;4.03;;;22.20;79.50;;;;;;4991845;28;20190;-76
2022/06/21 03:23:32;;;;;;;8.55;4.40;;;22.20;79.30;;;;;;4989189;28;20217;-76
2022/06/21 03:26:03;;;;;;;7.85;5.13;;;22.20;79.30;;;;;;4995345;28;20197;-76
2022/06/21 03:28:34;;;;;;;6.22;3.53;;;22.20;79.30;;;;;;4995791;28;20181;-76
2022/06/21 03:31:09;;;;;;;6.80;4.22;;;22.20;79.20;;;;;;5000725;28;20225;-76
2022/06/21 03:33:41;;;;;;;7.20;4.30;;;22.20;79.50;;;;;;5000490;28;20196;-76
2022/06/21 03:36:13;;;;;;;8.82;4.50;;;22.20;79.70;;;;;;5003488;28;20191;-76
2022/06/21 03:38:45;;;;;;;8.30;3.85;;;22.20;79.90;;;;;;5001010;28;20223;-76
2022/06/21 03:44:10;;;;;;;8.20;4.22;;;22.10;80.00;;;;;;5001713;28;20185;-76
2022/06/21 03:46:43;;;;;;;10.38;4.95;;;22.10;80.20;;;;;;4987145;28;20193;-76
2022/06/21 03:49:20;;;;;;;7.35;4.18;;;22.10;80.20;;;;;;4996685;28;20243;-76
2022/06/21 03:51:49;;;;;;;8.02;4.70;;;22.10;80.40;;;;;;5003396;28;20207;-77
2022/06/21 03:54:23;;;;;;;9.60;4.47;;;22.10;80.60;;;;;;4998207;28;20228;-75
2022/06/21 03:56:56;;;;;;;12.23;4.97;;;22.00;80.50;;;;;;4991067;28;20643;-76
2022/06/21 03:59:32;;;;;;;10.32;5.07;;;22.00;80.50;;;;;;4995679;28;20209;-77
2022/06/21 04:02:06;;;;;;;9.07;4.95;;;22.00;80.50;;;;;;4987969;28;20203;-76
2022/06/21 04:04:40;;;;;;;11.65;6.00;;;22.00;80.70;;;;;;5004503;28;20184;-76
2022/06/21 04:07:19;;;;;;;10.40;4.82;;;22.00;81.00;;;;;;5003511;28;20200;-77
2022/06/21 04:09:54;;;;;;;9.30;5.60;;;22.00;80.90;;;;;;4997098;28;20202;-75
2022/06/21 04:12:29;;;;;;;11.73;5.13;;;21.90;80.90;;;;;;4997485;28;20193;-76
2022/06/21 04:15:04;;;;;;;11.90;5.25;;;21.90;80.80;;;;;;4995754;28;20203;-77
2022/06/21 04:17:38;;;;;;;9.38;5.45;;;22.00;80.80;;;;;;5002283;28;20199;-76
2022/06/21 04:20:12;;;;;;;10.88;5.60;;;21.90;80.80;;;;;;5001871;28;20564;-76
2022/06/21 04:22:46;;;;;;;20.15;5.70;;;22.00;80.90;;;;;;5019413;28;20207;-76
2022/06/21 04:25:21;;;;;;;10.77;5.78;;;22.00;81.10;;;;;;5002694;28;20214;-76
2022/06/21 04:27:54;;;;;;;15.88;6.10;;;22.00;81.00;;;;;;5003529;28;20200;-77
2022/06/21 04:30:32;;;;;;;8.95;5.85;;;22.10;81.20;;;;;;4999646;28;20193;-76
2022/06/21 04:33:06;;;;;;;14.27;6.53;;;22.10;81.30;;;;;;5002011;28;20447;-77
2022/06/21 04:35:39;;;;;;;10.38;6.25;;;22.10;81.60;;;;;;5002730;28;20195;-76
2022/06/21 04:38:14;;;;;;;8.68;5.90;;;22.20;81.80;;;;;;5000510;28;20196;-76
2022/06/21 04:40:48;;;;;;;14.85;6.45;;;22.20;81.80;;;;;;4998678;28;20198;-76
2022/06/21 04:43:23;;;;;;;13.43;6.68;;;22.20;82.00;;;;;;5003527;28;20203;-76
2022/06/21 04:45:58;;;;;;;10.93;6.20;;;22.20;82.10;;;;;;4999835;28;20195;-76
2022/06/21 04:48:34;;;;;;;13.93;6.45;;;22.20;82.00;;;;;;5009974;28;20223;-77
2022/06/21 04:51:10;;;;;;;11.80;7.38;;;22.20;82.20;;;;;;5003917;28;20194;-76
2022/06/21 04:53:48;;;;;;;12.35;7.20;;;22.20;82.10;;;;;;5009842;28;20220;-75
2022/06/21 04:56:26;;;;;;;19.98;8.75;;;22.20;82.30;;;;;;5004161;28;20200;-77
2022/06/21 04:58:56;;;;;;;17.83;8.23;;;22.20;82.30;;;;;;4999245;28;20212;-76
2022/06/21 05:01:33;;;;;;;16.38;8.20;;;22.30;82.30;;;;;;5004497;28;20200;-77
2022/06/21 05:04:07;;;;;;;16.65;8.35;;;22.30;82.30;;;;;;4991704;28;20682;-76
2022/06/21 05:06:37;;;;;;;10.02;7.10;;;22.30;82.40;;;;;;5008424;28;20196;-75
2022/06/21 05:09:06;;;;;;;13.68;7.55;;;22.30;82.60;;;;;;4994400;28;20204;-76
2022/06/21 05:11:34;;;;;;;11.65;7.38;;;22.30;82.50;;;;;;5000326;28;20193;-77
2022/06/21 05:14:03;;;;;;;15.50;8.35;;;22.40;82.60;;;;;;5005009;28;20193;-76
2022/06/21 05:16:37;;;;;;;13.90;7.97;;;22.40;82.60;;;;;;5003131;28;20207;-76
2022/06/21 05:19:19;;;;;;;17.73;9.02;;;22.40;83.00;;;;;;4998494;28;20601;-74
2022/06/21 05:21:51;;;;;;;15.00;7.82;;;22.40;83.00;;;;;;4998416;28;20634;-74
2022/06/21 05:24:20;;;;;;;15.80;8.80;;;22.40;83.00;;;;;;4997459;28;20188;-75
2022/06/21 05:26:56;;;;;;;17.20;9.50;;;22.50;83.10;;;;;;5000721;28;20215;-74
2022/06/21 05:29:30;;;;;;;16.08;10.15;;;22.50;83.10;;;;;;5003789;28;20188;-74
2022/06/21 05:32:03;;;;;;;23.98;11.18;;;22.50;83.40;;;;;;5003194;28;20216;-75
2022/06/21 05:34:35;;;;;;;23.60;9.73;;;22.60;83.30;;;;;;5002333;28;20210;-75
2022/06/21 05:37:08;;;;;;;16.65;9.07;;;22.60;83.30;;;;;;5004899;28;20192;-74
2022/06/21 05:39:40;;;;;;;22.02;9.55;;;22.60;83.70;;;;;;5002809;28;20566;-74
2022/06/21 05:42:14;;;;;;;15.35;8.60;;;22.70;83.80;;;;;;5001174;28;20193;-74
2022/06/21 05:44:48;;;;;;;17.02;8.35;;;22.70;84.00;;;;;;4993236;28;20197;-76
2022/06/21 05:47:23;;;;;;;14.93;8.13;;;22.80;84.00;;;;;;4992327;28;20921;-75
2022/06/21 05:49:53;;;;;;;14.07;8.25;;;22.80;84.40;;;;;;4992431;28;20196;-74
2022/06/21 05:52:25;;;;;;;17.17;8.00;;;22.90;84.10;;;;;;5002477;28;20201;-75
2022/06/21 05:54:59;;;;;;;9.02;6.75;;;23.00;84.10;;;;;;5010903;28;20198;-75
2022/06/21 05:57:36;;;;;;;12.25;7.93;;;23.10;84.50;;;;;;5003864;28;20200;-76
2022/06/21 06:00:06;;;;;;;14.90;7.70;;;23.10;84.30;;;;;;5013992;28;20208;-77
2022/06/21 06:02:43;;;;;;;17.75;7.80;;;23.20;84.30;;;;;;5002814;28;20199;-77
2022/06/21 06:05:17;;;;;;;10.02;7.00;;;23.30;84.30;;;;;;4997506;28;20196;-75
2022/06/21 06:07:50;;;;;;;11.05;7.32;;;23.40;84.10;;;;;;4991881;28;20199;-76
2022/06/21 06:10:21;;;;;;;14.88;7.32;;;23.50;84.10;;;;;;5008064;28;20184;-76
2022/06/21 06:12:55;;;;;;;12.95;7.18;;;23.60;83.90;;;;;;5001817;28;20197;-76
2022/06/21 06:15:27;;;;;;;10.23;7.15;;;23.70;83.70;;;;;;5007549;28;20192;-76
2022/06/21 06:18:00;;;;;;;9.63;6.93;;;23.80;83.50;;;;;;4997837;28;20193;-74
2022/06/21 06:20:35;;;;;;;12.98;6.78;;;24.00;83.40;;;;;;4997293;28;20213;-73
2022/06/21 06:23:13;;;;;;;11.15;7.15;;;24.10;83.40;;;;;;5012523;28;20196;-74
2022/06/21 06:25:46;;;;;;;15.57;7.15;;;24.20;83.30;;;;;;5002903;28;20194;-76
2022/06/21 06:28:22;;;;;;;13.90;6.80;;;24.30;83.20;;;;;;5000641;28;20199;-75
2022/06/21 06:30:56;;;;;;;20.55;6.70;;;24.40;83.00;;;;;;5001627;28;20219;-76
2022/06/21 06:33:32;;;;;;;10.57;6.75;;;24.60;82.60;;;;;;5001148;28;20207;-77
2022/06/21 06:36:10;;;;;;;8.75;6.50;;;24.70;82.30;;;;;;5009010;28;20405;-73
2022/06/21 06:38:39;;;;;;;20.02;6.85;;;24.80;82.00;;;;;;5002260;28;20192;-74
2022/06/21 06:41:13;;;;;;;9.57;6.70;;;24.90;82.00;;;;;;5009631;28;20227;-74
2022/06/21 06:43:46;;;;;;;17.13;7.05;;;25.10;81.70;;;;;;5000078;28;20188;-78
2022/06/21 06:46:28;;;;;;;9.10;6.45;;;25.20;81.30;;;;;;5005026;28;20200;-77
2022/06/21 06:49:08;;;;;;;14.75;6.60;;;25.30;79.70;;;;;;5003753;28;20280;-74
2022/06/21 06:51:58;;;;;;;10.30;6.47;;;25.40;79.30;;;;;;5000714;28;20196;-74
2022/06/21 06:54:39;;;;;;;9.93;5.68;;;25.60;78.60;;;;;;4999278;28;20188;-75
2022/06/21 06:57:17;;;;;;;12.07;5.93;;;25.80;78.10;;;;;;5002889;28;20196;-76
2022/06/21 06:59:46;;;;;;;13.20;6.13;;;25.90;77.50;;;;;;4993833;28;20212;-75
2022/06/21 07:02:24;;;;;;;11.02;6.45;;;26.00;76.60;;;;;;4995711;28;20200;-75
2022/06/21 07:05:03;;;;;;;9.07;5.80;;;26.10;76.70;;;;;;5003434;28;20909;-77
2022/06/21 07:07:42;;;;;;;8.38;6.22;;;26.30;76.30;;;;;;5006890;28;20223;-77
2022/06/21 07:10:17;;;;;;;11.02;6.03;;;26.40;75.60;;;;;;5012951;28;20223;-77
2022/06/21 07:12:47;;;;;;;9.50;5.72;;;26.50;75.40;;;;;;5002595;28;20694;-80
2022/06/21 07:15:16;;;;;;;10.05;6.60;;;26.60;75.10;;;;;;5004830;28;20203;-76
2022/06/21 07:17:51;;;;;;;10.75;5.82;;;26.70;75.00;;;;;;5000290;28;20204;-82
2022/06/21 07:20:24;;;;;;;12.40;6.13;;;26.80;74.80;;;;;;5004074;28;20231;-79
2022/06/21 07:22:55;;;;;;;11.27;5.75;;;26.90;74.30;;;;;;4998192;28;20560;-78
2022/06/21 07:25:33;;;;;;;17.10;6.30;;;27.00;74.50;;;;;;4999615;28;20236;-81
2022/06/21 07:28:07;;;;;;;6.65;5.50;;;27.10;74.40;;;;;;4996629;28;20283;-77
2022/06/21 07:30:40;;;;;;;12.05;6.45;;;27.30;73.50;;;;;;5016564;28;20201;-79
2022/06/21 07:33:13;;;;;;;10.70;6.47;;;27.30;73.00;;;;;;5005813;28;20633;-79
2022/06/21 07:35:48;;;;;;;11.70;6.70;;;27.50;73.00;;;;;;5004722;28;20187;-80
2022/06/21 07:38:20;;;;;;;9.73;5.10;;;27.50;72.30;;;;;;5006816;28;20189;-76
2022/06/21 07:40:53;;;;;;;5.57;4.85;;;27.60;72.20;;;;;;5013721;28;20226;-79
2022/06/21 07:43:29;;;;;;;5.93;5.00;;;27.70;71.80;;;;;;5006944;28;22229;-78
2022/06/21 07:46:02;;;;;;;7.88;5.10;;;27.80;70.50;;;;;;5007610;28;20242;-78
2022/06/21 07:48:37;;;;;;;10.45;4.70;;;27.90;69.10;;;;;;5001974;28;20713;-77
2022/06/21 07:51:11;;;;;;;7.85;5.30;;;28.00;69.60;;;;;;4997980;28;20734;-77
2022/06/21 07:53:46;;;;;;;6.70;5.05;;;28.10;70.20;;;;;;4999651;28;20204;-77
2022/06/21 07:56:17;;;;;;;13.60;5.07;;;28.20;69.70;;;;;;5006449;28;20200;-77
2022/06/21 07:58:49;;;;;;;6.50;4.68;;;28.30;69.30;;;;;;5002467;28;20209;-77
2022/06/21 08:07:09;;;;;;;9.40;4.55;;;28.60;67.00;;;;;;5006239;28;20196;-82
2022/06/21 08:09:43;;;;;;;7.28;4.40;;;28.60;65.40;;;;;;5003899;28;20192;-77
2022/06/21 08:12:13;;;;;;;6.90;4.38;;;28.70;65.20;;;;;;5007447;28;20199;-80
2022/06/21 08:14:42;;;;;;;6.63;3.95;;;28.80;64.60;;;;;;4998290;28;20189;-77
2022/06/21 08:17:20;;;;;;;6.40;3.80;;;28.90;64.00;;;;;;5003252;28;20283;-79
2022/06/21 08:19:56;;;;;;;6.97;4.35;;;29.00;64.10;;;;;;5006057;28;20291;-81
2022/06/21 08:22:32;;;;;;;5.25;4.40;;;29.10;64.10;;;;;;5000702;28;20202;-80
2022/06/21 08:25:13;;;;;;;8.80;4.82;;;29.20;64.20;;;;;;5001701;28;20694;-78
2022/06/21 08:27:47;;;;;;;10.07;4.68;;;29.20;62.50;;;;;;4994325;28;20216;-79
2022/06/21 08:30:20;;;;;;;7.05;4.10;;;29.40;61.90;;;;;;4990537;28;20196;-77
2022/06/21 08:32:54;;;;;;;5.97;4.13;;;29.40;62.60;;;;;;4995317;28;20321;-76
2022/06/21 08:35:29;;;;;;;8.82;4.00;;;29.50;62.80;;;;;;4996237;28;20876;-77
2022/06/21 08:38:07;;;;;;;13.82;4.43;;;29.60;62.70;;;;;;5000294;28;20192;-80
2022/06/21 08:41:51;;;;;;;8.13;4.10;;;29.70;62.20;;;;;;4997957;28;20216;-77
2022/06/21 08:44:32;;;;;;;9.95;3.97;;;29.80;61.50;;;;;;4994787;28;20188;-78
2022/06/21 08:47:29;;;;;;;7.85;3.80;;;29.90;61.20;;;;;;4960146;28;20201;-76
2022/06/21 08:50:47;;;;;;;11.73;3.65;;;30.00;60.80;;;;;;5001615;28;20196;-79
2022/06/21 08:53:36;;;;;;;4.50;3.30;;;30.00;58.90;;;;;;5003079;28;20180;-78
2022/06/21 08:56:13;;;;;;;7.55;3.58;;;30.20;59.20;;;;;;5006610;28;20192;-79
2022/06/21 08:58:58;;;;;;;9.90;3.70;;;30.20;59.40;;;;;;5003054;28;20283;-75
2022/06/21 09:01:34;;;;;;;9.02;3.40;;;30.30;58.80;;;;;;5008290;28;20215;-76
2022/06/21 09:04:24;;;;;;;4.60;3.30;;;30.30;58.90;;;;;;5000586;28;20196;-76
2022/06/21 09:07:14;;;;;;;6.93;3.58;;;30.40;57.90;;;;;;5003997;28;20220;-79
2022/06/21 09:09:56;;;;;;;4.43;3.72;;;30.50;57.70;;;;;;4996776;28;20180;-79
2022/06/21 09:12:36;;;;;;;7.53;4.00;;;30.60;58.20;;;;;;5014850;28;20219;-80
2022/06/21 09:15:23;;;;;;;5.88;3.38;;;30.70;58.50;;;;;;5001364;28;20646;-80
2022/06/21 09:18:09;;;;;;;5.97;4.22;;;30.70;58.40;;;;;;4999496;28;20187;-75
2022/06/21 09:20:44;;;;;;;7.85;4.30;;;30.80;58.20;;;;;;5001387;28;20208;-79
2022/06/21 09:23:38;;;;;;;5.45;3.83;;;30.80;57.90;;;;;;5005788;28;20607;-78
2022/06/21 09:26:17;;;;;;;7.47;3.85;;;30.90;58.30;;;;;;5000056;28;20191;-79
2022/06/21 09:29:00;;;;;;;8.73;4.18;;;31.00;58.30;;;;;;5008241;28;20191;-80
2022/06/21 09:31:38;;;;;;;7.78;3.60;;;31.00;58.20;;;;;;4982023;28;20952;-77
2022/06/21 09:34:11;;;;;;;5.45;2.90;;;31.10;57.50;;;;;;5003531;28;20188;-78
2022/06/21 09:36:46;;;;;;;7.30;3.00;;;31.20;57.10;;;;;;5015272;28;20603;-76
2022/06/21 09:39:22;;;;;;;3.83;2.72;;;31.20;56.40;;;;;;5003537;28;20575;-77
2022/06/21 09:42:02;;;;;;;9.68;3.50;;;31.30;57.40;;;;;;5001235;28;21216;-78
2022/06/21 09:44:38;;;;;;;7.00;3.17;;;31.40;56.70;;;;;;5005912;28;20189;-76
2022/06/21 09:47:18;;;;;;;7.00;3.25;;;31.50;56.80;;;;;;5000418;28;20779;-77
2022/06/21 09:49:53;;;;;;;5.10;3.33;;;31.50;56.70;;;;;;4996838;28;20200;-77
2022/06/21 09:52:32;;;;;;;5.25;3.20;;;31.60;56.30;;;;;;4992218;28;20191;-78
2022/06/21 09:55:12;;;;;;;5.50;3.53;;;31.70;56.40;;;;;;4991238;28;20717;-79
2022/06/21 09:57:53;;;;;;;7.55;3.33;;;31.70;56.30;;;;;;5003180;28;20223;-78
2022/06/21 10:00:37;;;;;;;5.32;3.10;;;31.80;55.70;;;;;;5006848;28;20193;-80
2022/06/21 10:03:26;;;;;;;6.18;3.15;;;31.90;54.80;;;;;;4993213;28;20199;-80
2022/06/21 10:06:01;;;;;;;6.97;3.70;;;31.90;54.50;;;;;;5012168;28;20743;-79
2022/06/21 10:08:42;;;;;;;5.72;3.17;;;32.00;54.50;;;;;;5002652;28;20203;-76
2022/06/21 10:11:18;;;;;;;7.18;3.75;;;32.10;54.70;;;;;;5010273;28;20662;-78
2022/06/21 10:14:27;;;;;;;4.57;3.20;;;32.20;55.20;;;;;;5005382;28;20191;-77
2022/06/21 10:17:27;;;;;;;7.63;3.38;;;32.30;55.00;;;;;;4971151;28;20203;-77
2022/06/21 10:20:15;;;;;;;4.47;2.92;;;32.40;54.80;;;;;;4988743;28;20208;-80
2022/06/21 10:22:54;;;;;;;5.35;3.10;;;32.50;54.60;;;;;;5013955;28;20294;-77
2022/06/21 10:25:45;;;;;;;6.38;2.88;;;32.60;54.50;;;;;;5003668;28;20318;-79
2022/06/21 10:28:51;;;;;;;4.03;2.90;;;32.60;53.40;;;;;;4999072;28;20187;-78
2022/06/21 10:31:37;;;;;;;5.80;3.15;;;32.70;53.20;;;;;;5005942;28;20235;-82
2022/06/21 10:34:38;;;;;;;7.15;2.97;;;32.80;51.60;;;;;;4997319;28;20200;-80
2022/06/21 10:37:28;;;;;;;6.65;2.90;;;32.80;51.90;;;;;;4996568;28;20199;-76
2022/06/21 10:40:19;;;;;;;10.90;3.50;;;32.90;51.70;;;;;;5017897;28;20192;-79
2022/06/21 10:43:18;;;;;;;3.67;2.67;;;33.00;51.60;;;;;;5011352;28;20204;-78
2022/06/21 10:46:00;;;;;;;3.80;2.70;;;33.10;51.60;;;;;;5005994;28;20196;-79
2022/06/21 10:49:10;;;;;;;7.53;2.85;;;33.20;52.10;;;;;;5020279;28;20260;-78
2022/06/21 10:51:54;;;;;;;5.85;3.17;;;33.30;51.90;;;;;;5006820;28;20262;-79
2022/06/21 10:54:36;;;;;;;6.13;3.17;;;33.40;52.00;;;;;;5017105;28;20192;-77
2022/06/21 10:57:15;;;;;;;6.95;3.05;;;33.40;51.20;;;;;;5008981;28;20192;-77
2022/06/21 11:03:36;;;;;;;7.20;2.65;;;33.50;49.40;;;;;;5001427;28;20224;-79
2022/06/21 11:06:24;;;;;;;3.25;2.42;;;33.60;49.80;;;;;;5010826;28;20198;-81
2022/06/21 11:09:02;;;;;;;4.38;2.80;;;33.60;50.00;;;;;;5009860;28;20235;-79
2022/06/21 11:11:41;;;;;;;5.97;2.72;;;33.60;49.30;;;;;;5016585;28;20192;-80
2022/06/21 11:14:21;;;;;;;4.63;2.50;;;33.60;49.70;;;;;;5013281;28;20200;-81
2022/06/21 11:16:56;;;;;;;4.38;2.63;;;33.60;49.60;;;;;;5007979;28;20197;-77
2022/06/21 11:19:32;;;;;;;5.10;2.50;;;33.60;49.50;;;;;;4998552;28;20283;-78
2022/06/21 11:22:15;;;;;;;4.25;2.90;;;33.60;48.80;;;;;;5000552;28;20794;-79
2022/06/21 11:24:59;;;;;;;3.90;2.47;;;33.70;49.10;;;;;;5007755;28;20188;-76
2022/06/21 11:27:32;;;;;;;3.08;2.25;;;33.80;48.60;;;;;;4995049;28;20196;-79
2022/06/21 11:30:06;;;;;;;6.65;2.60;;;33.80;48.90;;;;;;5014729;28;20203;-82
2022/06/21 11:32:42;;;;;;;3.78;2.40;;;33.80;48.20;;;;;;5009646;28;20228;-78
2022/06/21 11:35:19;;;;;;;6.13;2.53;;;33.80;48.00;;;;;;5005561;28;20200;-78
2022/06/21 11:38:11;;;;;;;2.95;1.92;;;33.90;48.10;;;;;;4999037;28;20209;-77
2022/06/21 11:40:50;;;;;;;2.72;1.95;;;34.00;48.40;;;;;;5008017;28;20184;-78
2022/06/21 11:43:41;;;;;;;4.32;2.30;;;34.00;48.40;;;;;;5002774;28;20217;-77
2022/06/21 11:46:19;;;;;;;2.90;1.70;;;34.00;47.40;;;;;;5012266;28;20246;-79
2022/06/21 11:49:35;;;;;;;3.85;2.25;;;34.00;47.30;;;;;;5018826;28;20203;-79
2022/06/21 11:52:32;;;;;;;2.70;2.25;;;34.10;47.40;;;;;;5002242;28;20196;-77
2022/06/21 11:55:10;;;;;;;5.05;2.40;;;34.20;47.60;;;;;;5005493;28;20771;-77
2022/06/21 11:57:48;;;;;;;5.50;2.10;;;34.30;46.90;;;;;;5008590;28;20192;-76
2022/06/21 12:00:22;;;;;;;6.70;2.13;;;34.40;46.90;;;;;;5009131;28;20192;-78
2022/06/21 12:02:56;;;;;;;4.97;1.90;;;34.40;46.00;;;;;;4998320;28;20216;-77
2022/06/21 12:05:36;;;;;;;6.40;2.25;;;34.50;45.80;;;;;;5006473;28;20192;-80
2022/06/21 12:08:11;;;;;;;3.70;2.05;;;34.50;44.90;;;;;;5006672;28;20188;-81
2022/06/21 12:10:50;;;;;;;2.63;1.67;;;34.50;45.30;;;;;;5003694;28;20753;-84
2022/06/21 12:13:44;;;;;;;4.30;2.00;;;34.60;44.40;;;;;;5007818;28;20267;-80
2022/06/21 12:16:30;;;;;;;3.05;2.00;;;34.70;45.40;;;;;;5007042;28;20203;-75
2022/06/21 12:19:03;;;;;;;5.72;2.35;;;34.80;45.50;;;;;;5008035;28;20189;-84
2022/06/21 12:21:35;;;;;;;9.38;2.65;;;34.80;45.40;;;;;;5000670;28;20602;-80
2022/06/21 12:24:07;;;;;;;6.82;2.60;;;34.90;44.90;;;;;;5006689;28;20224;-78
2022/06/21 12:26:37;;;;;;;4.70;2.28;;;35.00;45.10;;;;;;5006880;28;20233;-78
2022/06/21 12:29:14;;;;;;;9.50;2.47;;;35.20;45.70;;;;;;5016269;28;20199;-79
2022/06/21 12:31:50;;;;;;;2.97;2.03;;;35.30;46.30;;;;;;5006456;28;20282;-80
2022/06/21 12:34:29;;;;;;;6.32;2.70;;;35.50;46.00;;;;;;4993263;28;20197;-78
2022/06/21 12:37:02;;;;;;;5.78;2.22;;;35.70;45.50;;;;;;5008894;28;20204;-75
2022/06/21 12:39:38;;;;;;;4.90;2.00;;;35.80;45.30;;;;;;5004915;28;20860;-78
2022/06/21 12:42:26;;;;;;;5.85;2.28;;;36.00;45.00;;;;;;4997577;28;20192;-78
2022/06/21 12:45:11;;;;;;;3.55;2.20;;;36.20;45.20;;;;;;5015170;28;20217;-78
2022/06/21 12:47:51;;;;;;;5.32;2.47;;;36.50;44.50;;;;;;5017621;28;20195;-80
2022/06/21 12:50:46;;;;;;;5.97;2.42;;;36.60;44.30;;;;;;4996787;28;20196;-78
2022/06/21 12:53:54;;;;;;;4.55;2.28;;;36.70;43.60;;;;;;5003163;28;20184;-79
2022/06/21 12:56:44;;;;;;;6.13;2.40;;;36.80;43.20;;;;;;5005952;28;20196;-79
2022/06/21 12:59:40;;;;;;;3.40;2.00;;;37.10;44.10;;;;;;5002827;28;20212;-77
2022/06/21 13:03:01;;;;;;;3.67;2.00;;;37.30;43.50;;;;;;5003493;28;20196;-80
2022/06/21 13:05:46;;;;;;;9.30;2.50;;;37.40;42.60;;;;;;4987023;28;20196;-79
2022/06/21 13:08:36;;;;;;;5.30;2.35;;;37.50;42.80;;;;;;4999037;28;20208;-80
2022/06/21 13:11:15;;;;;;;2.97;2.22;;;37.40;42.10;;;;;;5003129;28;20193;-83
2022/06/21 13:14:01;;;;;;;4.90;2.75;;;37.20;42.20;;;;;;5002242;28;20204;-85
2022/06/21 13:16:41;;;;;;;4.18;2.75;;;37.00;42.20;;;;;;4992588;28;20279;-81
2022/06/21 13:19:40;;;;;;;4.80;2.80;;;36.80;42.60;;;;;;4990332;28;20208;-79
2022/06/21 13:22:28;;;;;;;5.47;2.90;;;36.70;42.80;;;;;;5001140;28;20339;-79
2022/06/21 13:25:11;;;;;;;4.45;2.83;;;36.50;43.20;;;;;;5002666;28;20878;-81
2022/06/21 13:27:53;;;;;;;7.97;3.28;;;36.30;43.40;;;;;;5011440;28;20196;-78
2022/06/21 13:30:43;;;;;;;7.13;2.72;;;36.20;43.60;;;;;;4998632;28;20187;-78
2022/06/21 13:33:18;;;;;;;10.23;3.10;;;36.00;43.90;;;;;;5001602;28;20195;-76
2022/06/21 13:35:57;;;;;;;6.93;3.33;;;35.90;44.70;;;;;;4998085;28;20188;-78
2022/06/21 13:38:36;;;;;;;6.07;3.50;;;35.80;47.40;;;;;;4999825;28;20559;-78
2022/06/21 13:42:37;;;;;;;8.55;3.85;;;35.70;49.70;;;;;;4993811;28;20227;-77
2022/06/21 13:44:11;;;;;;;4.15;2.92;;;35.60;48.50;;;;;;4995946;28;20212;-77
2022/06/21 13:46:49;;;;;;;5.65;3.00;;;35.40;48.60;;;;;;5005186;28;20185;-76
2022/06/21 13:49:23;;;;;;;7.97;3.63;;;35.40;48.70;;;;;;5007381;28;20211;-77